sensor_id;sensor_type;location;lat;lon;timestamp;P1;durP1;ratioP1;P2;durP2;ratioP2
44558;SDS011;30270;40.238;18.256;2022-10-16T00:01:43;13.23;;;8.88;;
44558;SDS011;30270;40.238;18.256;2022-10-16T00:04:13;15.57;;;8.77;;
44558;SDS011;30270;40.238;18.256;2022-10-16T00:06:41;12.38;;;9.07;;
44558;SDS011;30270;40.238;18.256;2022-10-16T00:09:09;20.10;;;9.52;;
44558;SDS011;30270;40.238;18.256;2022-10-16T00:11:38;14.10;;;8.73;;
44558;SDS011;30270;40.238;18.256;2022-10-16T00:14:08;16.05;;;9.95;;
44558;SDS011;30270;40.238;18.256;2022-10-16T00:16:38;18.67;;;10.80;;
44558;SDS011;30270;40.238;18.256;2022-10-16T00:19:06;17.30;;;9.82;;
44558;SDS011;30270;40.238;18.256;2022-10-16T00:21:33;15.15;;;9.65;;
44558;SDS011;30270;40.238;18.256;2022-10-16T00:24:20;17.45;;;10.10;;
44558;SDS011;30270;40.238;18.256;2022-10-16T00:26:48;18.23;;;9.38;;
44558;SDS011;30270;40.238;18.256;2022-10-16T00:29:16;16.55;;;11.50;;
44558;SDS011;30270;40.238;18.256;2022-10-16T00:31:44;15.38;;;10.27;;
44558;SDS011;30270;40.238;18.256;2022-10-16T00:34:11;15.32;;;10.65;;
44558;SDS011;30270;40.238;18.256;2022-10-16T00:36:39;19.48;;;11.32;;
44558;SDS011;30270;40.238;18.256;2022-10-16T00:39:07;18.65;;;11.35;;
44558;SDS011;30270;40.238;18.256;2022-10-16T00:41:35;16.08;;;10.43;;
44558;SDS011;30270;40.238;18.256;2022-10-16T00:44:04;18.10;;;12.25;;
44558;SDS011;30270;40.238;18.256;2022-10-16T00:47:13;19.08;;;13.05;;
44558;SDS011;30270;40.238;18.256;2022-10-16T00:49:46;14.02;;;11.20;;
44558;SDS011;30270;40.238;18.256;2022-10-16T00:52:16;17.23;;;12.73;;
44558;SDS011;30270;40.238;18.256;2022-10-16T00:54:44;16.77;;;11.13;;
44558;SDS011;30270;40.238;18.256;2022-10-16T00:57:14;17.55;;;11.45;;
44558;SDS011;30270;40.238;18.256;2022-10-16T00:59:42;18.58;;;12.45;;
44558;SDS011;30270;40.238;18.256;2022-10-16T01:02:11;20.73;;;12.60;;
44558;SDS011;30270;40.238;18.256;2022-10-16T01:04:48;20.00;;;12.32;;
44558;SDS011;30270;40.238;18.256;2022-10-16T01:07:23;20.73;;;12.93;;
44558;SDS011;30270;40.238;18.256;2022-10-16T01:12:54;22.77;;;13.50;;
44558;SDS011;30270;40.238;18.256;2022-10-16T01:15:34;25.00;;;12.90;;
44558;SDS011;30270;40.238;18.256;2022-10-16T01:26:31;19.00;;;12.38;;
44558;SDS011;30270;40.238;18.256;2022-10-16T01:30:05;19.83;;;12.55;;
44558;SDS011;30270;40.238;18.256;2022-10-16T01:38:19;20.67;;;12.38;;
44558;SDS011;30270;40.238;18.256;2022-10-16T01:40:58;22.98;;;13.30;;
44558;SDS011;30270;40.238;18.256;2022-10-16T01:43:34;19.45;;;12.25;;
44558;SDS011;30270;40.238;18.256;2022-10-16T01:46:05;20.50;;;13.52;;
44558;SDS011;30270;40.238;18.256;2022-10-16T01:48:36;22.48;;;13.27;;
44558;SDS011;30270;40.238;18.256;2022-10-16T01:51:06;25.27;;;14.18;;
44558;SDS011;30270;40.238;18.256;2022-10-16T01:53:40;21.77;;;12.57;;
44558;SDS011;30270;40.238;18.256;2022-10-16T01:56:12;20.25;;;14.73;;
44558;SDS011;30270;40.238;18.256;2022-10-16T01:58:47;20.85;;;13.68;;
44558;SDS011;30270;40.238;18.256;2022-10-16T02:01:20;24.00;;;15.18;;
44558;SDS011;30270;40.238;18.256;2022-10-16T02:03:52;24.63;;;13.32;;
44558;SDS011;30270;40.238;18.256;2022-10-16T02:06:23;21.38;;;12.80;;
44558;SDS011;30270;40.238;18.256;2022-10-16T02:08:53;24.77;;;15.23;;
44558;SDS011;30270;40.238;18.256;2022-10-16T02:11:21;21.90;;;14.93;;
44558;SDS011;30270;40.238;18.256;2022-10-16T02:13:50;27.90;;;14.63;;
44558;SDS011;30270;40.238;18.256;2022-10-16T02:16:23;24.05;;;14.68;;
44558;SDS011;30270;40.238;18.256;2022-10-16T02:18:59;20.58;;;13.75;;
44558;SDS011;30270;40.238;18.256;2022-10-16T02:21:30;24.45;;;15.07;;
44558;SDS011;30270;40.238;18.256;2022-10-16T02:29:24;23.90;;;13.52;;
44558;SDS011;30270;40.238;18.256;2022-10-16T02:31:58;17.08;;;12.70;;
44558;SDS011;30270;40.238;18.256;2022-10-16T02:34:28;22.90;;;14.83;;
44558;SDS011;30270;40.238;18.256;2022-10-16T02:36:59;19.13;;;12.80;;
44558;SDS011;30270;40.238;18.256;2022-10-16T02:39:28;20.35;;;13.85;;
44558;SDS011;30270;40.238;18.256;2022-10-16T02:41:57;22.45;;;15.77;;
44558;SDS011;30270;40.238;18.256;2022-10-16T02:44:25;20.30;;;13.63;;
44558;SDS011;30270;40.238;18.256;2022-10-16T02:46:52;22.83;;;14.68;;
44558;SDS011;30270;40.238;18.256;2022-10-16T02:49:20;21.20;;;14.50;;
44558;SDS011;30270;40.238;18.256;2022-10-16T02:51:47;23.17;;;14.30;;
44558;SDS011;30270;40.238;18.256;2022-10-16T02:54:15;23.92;;;14.82;;
44558;SDS011;30270;40.238;18.256;2022-10-16T02:56:43;22.80;;;14.80;;
44558;SDS011;30270;40.238;18.256;2022-10-16T02:59:11;27.02;;;15.23;;
44558;SDS011;30270;40.238;18.256;2022-10-16T03:01:39;26.55;;;15.23;;
44558;SDS011;30270;40.238;18.256;2022-10-16T03:04:06;21.55;;;14.25;;
44558;SDS011;30270;40.238;18.256;2022-10-16T03:06:36;20.23;;;14.32;;
44558;SDS011;30270;40.238;18.256;2022-10-16T03:09:04;22.00;;;14.40;;
44558;SDS011;30270;40.238;18.256;2022-10-16T03:11:31;25.17;;;15.10;;
44558;SDS011;30270;40.238;18.256;2022-10-16T03:13:59;27.33;;;14.23;;
44558;SDS011;30270;40.238;18.256;2022-10-16T03:16:27;24.10;;;15.77;;
44558;SDS011;30270;40.238;18.256;2022-10-16T03:18:55;24.77;;;16.27;;
44558;SDS011;30270;40.238;18.256;2022-10-16T03:21:22;26.10;;;15.73;;
44558;SDS011;30270;40.238;18.256;2022-10-16T03:23:50;21.98;;;14.80;;
44558;SDS011;30270;40.238;18.256;2022-10-16T03:26:17;25.48;;;15.63;;
44558;SDS011;30270;40.238;18.256;2022-10-16T03:28:45;19.98;;;14.13;;
44558;SDS011;30270;40.238;18.256;2022-10-16T03:31:13;22.63;;;14.90;;
44558;SDS011;30270;40.238;18.256;2022-10-16T03:33:41;27.02;;;16.60;;
44558;SDS011;30270;40.238;18.256;2022-10-16T03:36:08;28.58;;;17.52;;
44558;SDS011;30270;40.238;18.256;2022-10-16T03:38:36;23.40;;;14.68;;
44558;SDS011;30270;40.238;18.256;2022-10-16T03:41:04;25.27;;;16.73;;
44558;SDS011;30270;40.238;18.256;2022-10-16T03:43:34;23.27;;;16.73;;
44558;SDS011;30270;40.238;18.256;2022-10-16T03:46:02;30.23;;;17.33;;
44558;SDS011;30270;40.238;18.256;2022-10-16T03:48:30;27.52;;;18.35;;
44558;SDS011;30270;40.238;18.256;2022-10-16T03:50:59;29.20;;;17.58;;
44558;SDS011;30270;40.238;18.256;2022-10-16T03:53:26;29.52;;;17.58;;
44558;SDS011;30270;40.238;18.256;2022-10-16T03:55:54;27.88;;;18.75;;
44558;SDS011;30270;40.238;18.256;2022-10-16T03:58:22;32.67;;;20.10;;
44558;SDS011;30270;40.238;18.256;2022-10-16T04:00:49;29.23;;;20.52;;
44558;SDS011;30270;40.238;18.256;2022-10-16T04:03:17;33.35;;;21.33;;
44558;SDS011;30270;40.238;18.256;2022-10-16T04:05:45;36.63;;;21.25;;
44558;SDS011;30270;40.238;18.256;2022-10-16T04:08:13;41.65;;;21.67;;
44558;SDS011;30270;40.238;18.256;2022-10-16T04:10:44;35.05;;;20.80;;
44558;SDS011;30270;40.238;18.256;2022-10-16T04:13:12;33.55;;;21.80;;
44558;SDS011;30270;40.238;18.256;2022-10-16T04:15:40;34.80;;;21.50;;
44558;SDS011;30270;40.238;18.256;2022-10-16T04:18:08;37.70;;;22.33;;
44558;SDS011;30270;40.238;18.256;2022-10-16T04:20:36;33.95;;;20.25;;
44558;SDS011;30270;40.238;18.256;2022-10-16T04:23:04;36.17;;;23.55;;
44558;SDS011;30270;40.238;18.256;2022-10-16T04:25:31;34.53;;;19.98;;
44558;SDS011;30270;40.238;18.256;2022-10-16T04:27:59;36.35;;;22.40;;
44558;SDS011;30270;40.238;18.256;2022-10-16T04:30:27;35.05;;;20.45;;
44558;SDS011;30270;40.238;18.256;2022-10-16T04:32:54;40.60;;;21.50;;
44558;SDS011;30270;40.238;18.256;2022-10-16T04:35:22;35.92;;;21.60;;
44558;SDS011;30270;40.238;18.256;2022-10-16T04:37:50;30.10;;;20.50;;
44558;SDS011;30270;40.238;18.256;2022-10-16T04:40:18;36.85;;;21.63;;
44558;SDS011;30270;40.238;18.256;2022-10-16T04:42:46;37.53;;;21.88;;
44558;SDS011;30270;40.238;18.256;2022-10-16T04:45:13;32.03;;;19.90;;
44558;SDS011;30270;40.238;18.256;2022-10-16T04:47:41;29.25;;;20.20;;
44558;SDS011;30270;40.238;18.256;2022-10-16T04:50:09;38.75;;;20.55;;
44558;SDS011;30270;40.238;18.256;2022-10-16T04:52:37;33.38;;;21.73;;
44558;SDS011;30270;40.238;18.256;2022-10-16T04:55:05;31.00;;;20.92;;
44558;SDS011;30270;40.238;18.256;2022-10-16T04:57:34;31.88;;;20.05;;
44558;SDS011;30270;40.238;18.256;2022-10-16T05:00:02;30.98;;;20.60;;
44558;SDS011;30270;40.238;18.256;2022-10-16T05:02:30;31.98;;;20.60;;
44558;SDS011;30270;40.238;18.256;2022-10-16T05:04:58;32.35;;;21.38;;
44558;SDS011;30270;40.238;18.256;2022-10-16T05:07:25;34.58;;;21.48;;
44558;SDS011;30270;40.238;18.256;2022-10-16T05:09:53;33.42;;;20.10;;
44558;SDS011;30270;40.238;18.256;2022-10-16T05:12:20;30.10;;;19.23;;
44558;SDS011;30270;40.238;18.256;2022-10-16T05:14:48;35.78;;;22.45;;
44558;SDS011;30270;40.238;18.256;2022-10-16T05:17:16;32.35;;;20.95;;
44558;SDS011;30270;40.238;18.256;2022-10-16T05:19:43;34.03;;;21.45;;
44558;SDS011;30270;40.238;18.256;2022-10-16T05:22:11;34.88;;;22.60;;
44558;SDS011;30270;40.238;18.256;2022-10-16T05:24:39;36.85;;;21.55;;
44558;SDS011;30270;40.238;18.256;2022-10-16T05:27:06;36.17;;;20.73;;
44558;SDS011;30270;40.238;18.256;2022-10-16T05:29:34;35.58;;;21.05;;
44558;SDS011;30270;40.238;18.256;2022-10-16T05:32:02;30.30;;;21.58;;
44558;SDS011;30270;40.238;18.256;2022-10-16T05:34:32;34.00;;;21.08;;
44558;SDS011;30270;40.238;18.256;2022-10-16T05:37:00;31.27;;;19.63;;
44558;SDS011;30270;40.238;18.256;2022-10-16T05:39:30;35.05;;;21.98;;
44558;SDS011;30270;40.238;18.256;2022-10-16T05:41:57;32.38;;;21.38;;
44558;SDS011;30270;40.238;18.256;2022-10-16T05:44:25;30.95;;;19.98;;
44558;SDS011;30270;40.238;18.256;2022-10-16T05:46:53;27.67;;;19.20;;
44558;SDS011;30270;40.238;18.256;2022-10-16T05:49:20;30.48;;;18.33;;
44558;SDS011;30270;40.238;18.256;2022-10-16T05:51:48;28.88;;;19.83;;
44558;SDS011;30270;40.238;18.256;2022-10-16T05:54:15;27.30;;;19.05;;
44558;SDS011;30270;40.238;18.256;2022-10-16T05:56:43;31.05;;;19.08;;
44558;SDS011;30270;40.238;18.256;2022-10-16T05:59:11;29.08;;;18.98;;
44558;SDS011;30270;40.238;18.256;2022-10-16T06:01:38;26.65;;;18.98;;
44558;SDS011;30270;40.238;18.256;2022-10-16T06:04:06;43.10;;;23.45;;
44558;SDS011;30270;40.238;18.256;2022-10-16T06:06:34;46.95;;;27.25;;
44558;SDS011;30270;40.238;18.256;2022-10-16T06:09:03;42.55;;;24.17;;
44558;SDS011;30270;40.238;18.256;2022-10-16T06:11:32;51.33;;;25.20;;
44558;SDS011;30270;40.238;18.256;2022-10-16T06:14:00;45.40;;;22.30;;
44558;SDS011;30270;40.238;18.256;2022-10-16T06:16:34;48.33;;;24.55;;
44558;SDS011;30270;40.238;18.256;2022-10-16T06:19:03;44.53;;;22.27;;
44558;SDS011;30270;40.238;18.256;2022-10-16T06:21:33;42.40;;;20.73;;
44558;SDS011;30270;40.238;18.256;2022-10-16T06:24:00;38.22;;;20.30;;
44558;SDS011;30270;40.238;18.256;2022-10-16T06:26:29;30.75;;;17.77;;
44558;SDS011;30270;40.238;18.256;2022-10-16T06:28:58;36.35;;;21.42;;
44558;SDS011;30270;40.238;18.256;2022-10-16T06:31:27;32.03;;;18.08;;
44558;SDS011;30270;40.238;18.256;2022-10-16T06:33:57;28.30;;;19.42;;
44558;SDS011;30270;40.238;18.256;2022-10-16T06:36:26;26.88;;;16.67;;
44558;SDS011;30270;40.238;18.256;2022-10-16T06:38:54;23.02;;;16.92;;
44558;SDS011;30270;40.238;18.256;2022-10-16T06:41:22;29.67;;;17.27;;
44558;SDS011;30270;40.238;18.256;2022-10-16T06:43:50;28.73;;;18.00;;
44558;SDS011;30270;40.238;18.256;2022-10-16T06:46:20;26.90;;;18.65;;
44558;SDS011;30270;40.238;18.256;2022-10-16T06:48:49;34.60;;;18.38;;
44558;SDS011;30270;40.238;18.256;2022-10-16T06:51:19;24.45;;;17.17;;
44558;SDS011;30270;40.238;18.256;2022-10-16T06:53:51;29.73;;;18.35;;
44558;SDS011;30270;40.238;18.256;2022-10-16T06:56:28;23.75;;;17.13;;
44558;SDS011;30270;40.238;18.256;2022-10-16T06:58:58;24.60;;;17.20;;
44558;SDS011;30270;40.238;18.256;2022-10-16T07:01:28;27.17;;;17.65;;
44558;SDS011;30270;40.238;18.256;2022-10-16T07:03:56;24.45;;;16.30;;
44558;SDS011;30270;40.238;18.256;2022-10-16T07:06:25;26.30;;;16.90;;
44558;SDS011;30270;40.238;18.256;2022-10-16T07:08:54;21.85;;;17.23;;
44558;SDS011;30270;40.238;18.256;2022-10-16T07:11:22;27.00;;;18.73;;
44558;SDS011;30270;40.238;18.256;2022-10-16T07:13:51;29.17;;;15.77;;
44558;SDS011;30270;40.238;18.256;2022-10-16T07:16:20;28.65;;;17.20;;
44558;SDS011;30270;40.238;18.256;2022-10-16T07:18:59;24.27;;;15.73;;
44558;SDS011;30270;40.238;18.256;2022-10-16T07:21:30;23.98;;;17.02;;
44558;SDS011;30270;40.238;18.256;2022-10-16T07:24:03;26.05;;;16.52;;
44558;SDS011;30270;40.238;18.256;2022-10-16T07:26:34;27.77;;;16.75;;
44558;SDS011;30270;40.238;18.256;2022-10-16T07:29:03;26.38;;;16.63;;
44558;SDS011;30270;40.238;18.256;2022-10-16T07:31:32;25.85;;;16.42;;
44558;SDS011;30270;40.238;18.256;2022-10-16T07:34:00;20.20;;;15.15;;
44558;SDS011;30270;40.238;18.256;2022-10-16T07:36:27;24.77;;;16.63;;
44558;SDS011;30270;40.238;18.256;2022-10-16T07:38:55;20.98;;;13.77;;
44558;SDS011;30270;40.238;18.256;2022-10-16T07:41:24;22.10;;;14.77;;
44558;SDS011;30270;40.238;18.256;2022-10-16T07:43:52;20.88;;;13.52;;
44558;SDS011;30270;40.238;18.256;2022-10-16T07:46:23;24.52;;;14.98;;
44558;SDS011;30270;40.238;18.256;2022-10-16T07:48:51;21.70;;;14.18;;
44558;SDS011;30270;40.238;18.256;2022-10-16T07:51:20;22.88;;;14.57;;
44558;SDS011;30270;40.238;18.256;2022-10-16T07:53:49;23.73;;;14.77;;
44558;SDS011;30270;40.238;18.256;2022-10-16T07:56:18;21.80;;;14.68;;
44558;SDS011;30270;40.238;18.256;2022-10-16T07:58:48;21.50;;;13.63;;
44558;SDS011;30270;40.238;18.256;2022-10-16T08:01:17;17.48;;;12.45;;
44558;SDS011;30270;40.238;18.256;2022-10-16T08:03:47;18.27;;;11.98;;
44558;SDS011;30270;40.238;18.256;2022-10-16T08:06:16;15.48;;;11.30;;
44558;SDS011;30270;40.238;18.256;2022-10-16T08:08:45;16.00;;;11.02;;
44558;SDS011;30270;40.238;18.256;2022-10-16T08:11:13;16.58;;;11.70;;
44558;SDS011;30270;40.238;18.256;2022-10-16T08:13:42;13.73;;;9.63;;
44558;SDS011;30270;40.238;18.256;2022-10-16T08:16:09;14.48;;;10.15;;
44558;SDS011;30270;40.238;18.256;2022-10-16T08:18:38;10.77;;;8.70;;
44558;SDS011;30270;40.238;18.256;2022-10-16T08:21:08;13.10;;;9.65;;
44558;SDS011;30270;40.238;18.256;2022-10-16T08:23:42;13.65;;;7.80;;
44558;SDS011;30270;40.238;18.256;2022-10-16T08:26:11;12.30;;;8.20;;
44558;SDS011;30270;40.238;18.256;2022-10-16T08:28:40;15.23;;;9.27;;
44558;SDS011;30270;40.238;18.256;2022-10-16T08:31:11;15.18;;;9.75;;
44558;SDS011;30270;40.238;18.256;2022-10-16T08:33:45;15.32;;;10.55;;
44558;SDS011;30270;40.238;18.256;2022-10-16T08:36:16;14.55;;;9.63;;
44558;SDS011;30270;40.238;18.256;2022-10-16T08:38:46;13.40;;;9.48;;
44558;SDS011;30270;40.238;18.256;2022-10-16T08:47:17;17.13;;;10.07;;
44558;SDS011;30270;40.238;18.256;2022-10-16T08:49:43;13.95;;;9.38;;
44558;SDS011;30270;40.238;18.256;2022-10-16T08:52:21;16.25;;;9.55;;
44558;SDS011;30270;40.238;18.256;2022-10-16T08:54:50;13.10;;;8.95;;
44558;SDS011;30270;40.238;18.256;2022-10-16T08:57:22;12.57;;;9.15;;
44558;SDS011;30270;40.238;18.256;2022-10-16T08:59:57;11.98;;;8.48;;
44558;SDS011;30270;40.238;18.256;2022-10-16T09:02:32;13.43;;;8.38;;
44558;SDS011;30270;40.238;18.256;2022-10-16T09:08:27;10.35;;;6.95;;
44558;SDS011;30270;40.238;18.256;2022-10-16T09:11:09;9.57;;;6.30;;
44558;SDS011;30270;40.238;18.256;2022-10-16T09:16:24;9.45;;;6.90;;
44558;SDS011;30270;40.238;18.256;2022-10-16T09:19:04;10.07;;;6.97;;
44558;SDS011;30270;40.238;18.256;2022-10-16T09:21:49;10.80;;;7.03;;
44558;SDS011;30270;40.238;18.256;2022-10-16T09:24:19;9.20;;;6.18;;
44558;SDS011;30270;40.238;18.256;2022-10-16T09:26:50;10.82;;;7.22;;
44558;SDS011;30270;40.238;18.256;2022-10-16T09:29:20;10.88;;;6.55;;
44558;SDS011;30270;40.238;18.256;2022-10-16T09:31:52;10.95;;;6.82;;
44558;SDS011;30270;40.238;18.256;2022-10-16T09:34:34;9.23;;;6.30;;
44558;SDS011;30270;40.238;18.256;2022-10-16T09:37:09;10.90;;;8.35;;
44558;SDS011;30270;40.238;18.256;2022-10-16T09:42:18;12.13;;;7.35;;
44558;SDS011;30270;40.238;18.256;2022-10-16T09:44:51;10.20;;;6.95;;
44558;SDS011;30270;40.238;18.256;2022-10-16T09:47:21;10.68;;;7.70;;
44558;SDS011;30270;40.238;18.256;2022-10-16T09:49:55;9.73;;;6.72;;
44558;SDS011;30270;40.238;18.256;2022-10-16T09:52:26;11.70;;;8.07;;
44558;SDS011;30270;40.238;18.256;2022-10-16T09:54:55;12.95;;;8.07;;
44558;SDS011;30270;40.238;18.256;2022-10-16T09:57:25;12.43;;;7.53;;
44558;SDS011;30270;40.238;18.256;2022-10-16T09:59:54;12.05;;;7.72;;
44558;SDS011;30270;40.238;18.256;2022-10-16T10:02:27;14.52;;;8.27;;
44558;SDS011;30270;40.238;18.256;2022-10-16T10:05:04;13.88;;;8.88;;
44558;SDS011;30270;40.238;18.256;2022-10-16T10:07:35;12.85;;;8.68;;
44558;SDS011;30270;40.238;18.256;2022-10-16T10:10:20;12.48;;;8.95;;
44558;SDS011;30270;40.238;18.256;2022-10-16T10:12:53;11.90;;;7.93;;
44558;SDS011;30270;40.238;18.256;2022-10-16T10:15:22;13.88;;;8.30;;
44558;SDS011;30270;40.238;18.256;2022-10-16T10:17:52;11.63;;;8.70;;
44558;SDS011;30270;40.238;18.256;2022-10-16T10:22:54;12.27;;;8.75;;
44558;SDS011;30270;40.238;18.256;2022-10-16T10:31:09;10.23;;;7.47;;
44558;SDS011;30270;40.238;18.256;2022-10-16T10:36:38;13.30;;;8.27;;
44558;SDS011;30270;40.238;18.256;2022-10-16T10:39:19;16.65;;;8.85;;
44558;SDS011;30270;40.238;18.256;2022-10-16T11:01:31;13.18;;;9.05;;
44558;SDS011;30270;40.238;18.256;2022-10-16T11:06:59;12.20;;;8.52;;
44558;SDS011;30270;40.238;18.256;2022-10-16T11:09:33;10.73;;;8.27;;
44558;SDS011;30270;40.238;18.256;2022-10-16T11:12:18;13.63;;;8.43;;
44558;SDS011;30270;40.238;18.256;2022-10-16T11:15:00;15.23;;;10.45;;
44558;SDS011;30270;40.238;18.256;2022-10-16T11:17:39;12.45;;;8.57;;
44558;SDS011;30270;40.238;18.256;2022-10-16T11:20:16;11.70;;;8.57;;
44558;SDS011;30270;40.238;18.256;2022-10-16T11:30:51;14.82;;;8.95;;
44558;SDS011;30270;40.238;18.256;2022-10-16T11:33:32;13.05;;;9.15;;
44558;SDS011;30270;40.238;18.256;2022-10-16T11:41:39;14.65;;;10.60;;
44558;SDS011;30270;40.238;18.256;2022-10-16T11:44:19;13.68;;;8.85;;
44558;SDS011;30270;40.238;18.256;2022-10-16T11:56:13;15.13;;;10.43;;
44558;SDS011;30270;40.238;18.256;2022-10-16T12:01:31;14.80;;;10.88;;
44558;SDS011;30270;40.238;18.256;2022-10-16T12:04:30;17.95;;;10.35;;
44558;SDS011;30270;40.238;18.256;2022-10-16T12:07:07;14.20;;;9.60;;
44558;SDS011;30270;40.238;18.256;2022-10-16T12:09:39;15.43;;;10.38;;
44558;SDS011;30270;40.238;18.256;2022-10-16T12:12:27;13.77;;;9.95;;
44558;SDS011;30270;40.238;18.256;2022-10-16T12:18:00;14.98;;;10.90;;
44558;SDS011;30270;40.238;18.256;2022-10-16T12:20:29;16.67;;;10.20;;
44558;SDS011;30270;40.238;18.256;2022-10-16T12:23:02;12.82;;;8.95;;
44558;SDS011;30270;40.238;18.256;2022-10-16T12:25:39;16.13;;;9.98;;
44558;SDS011;30270;40.238;18.256;2022-10-16T12:30:43;13.75;;;9.90;;
44558;SDS011;30270;40.238;18.256;2022-10-16T12:33:25;14.15;;;9.88;;
44558;SDS011;30270;40.238;18.256;2022-10-16T12:35:53;15.35;;;10.32;;
44558;SDS011;30270;40.238;18.256;2022-10-16T12:38:26;13.60;;;10.05;;
44558;SDS011;30270;40.238;18.256;2022-10-16T12:43:41;12.07;;;8.90;;
44558;SDS011;30270;40.238;18.256;2022-10-16T12:48:41;14.43;;;8.80;;
44558;SDS011;30270;40.238;18.256;2022-10-16T12:51:25;11.73;;;8.05;;
44558;SDS011;30270;40.238;18.256;2022-10-16T12:54:03;13.95;;;8.60;;
44558;SDS011;30270;40.238;18.256;2022-10-16T12:56:54;11.65;;;7.75;;
44558;SDS011;30270;40.238;18.256;2022-10-16T13:08:22;9.63;;;6.93;;
44558;SDS011;30270;40.238;18.256;2022-10-16T13:29:53;5.28;;;3.90;;
44558;SDS011;30270;40.238;18.256;2022-10-16T13:32:28;7.95;;;3.97;;
44558;SDS011;30270;40.238;18.256;2022-10-16T13:34:58;5.47;;;3.78;;
44558;SDS011;30270;40.238;18.256;2022-10-16T13:37:28;7.63;;;3.10;;
44558;SDS011;30270;40.238;18.256;2022-10-16T13:40:09;7.82;;;3.17;;
44558;SDS011;30270;40.238;18.256;2022-10-16T13:42:47;5.30;;;3.53;;
44558;SDS011;30270;40.238;18.256;2022-10-16T13:45:17;5.38;;;3.72;;
44558;SDS011;30270;40.238;18.256;2022-10-16T13:47:49;4.15;;;2.85;;
44558;SDS011;30270;40.238;18.256;2022-10-16T13:50:18;6.68;;;3.30;;
44558;SDS011;30270;40.238;18.256;2022-10-16T13:52:46;4.75;;;3.58;;
44558;SDS011;30270;40.238;18.256;2022-10-16T13:55:14;5.88;;;4.30;;
44558;SDS011;30270;40.238;18.256;2022-10-16T13:57:45;4.90;;;3.50;;
44558;SDS011;30270;40.238;18.256;2022-10-16T14:00:20;5.85;;;3.53;;
44558;SDS011;30270;40.238;18.256;2022-10-16T14:03:13;7.07;;;3.50;;
44558;SDS011;30270;40.238;18.256;2022-10-16T14:05:45;5.43;;;3.92;;
44558;SDS011;30270;40.238;18.256;2022-10-16T14:08:19;6.80;;;4.72;;
44558;SDS011;30270;40.238;18.256;2022-10-16T14:10:49;6.50;;;4.63;;
44558;SDS011;30270;40.238;18.256;2022-10-16T14:13:24;7.50;;;3.78;;
44558;SDS011;30270;40.238;18.256;2022-10-16T14:16:11;5.13;;;3.65;;
44558;SDS011;30270;40.238;18.256;2022-10-16T14:19:03;5.45;;;3.97;;
44558;SDS011;30270;40.238;18.256;2022-10-16T14:21:37;5.63;;;3.53;;
44558;SDS011;30270;40.238;18.256;2022-10-16T14:24:25;6.00;;;3.83;;
44558;SDS011;30270;40.238;18.256;2022-10-16T14:27:01;4.97;;;3.97;;
44558;SDS011;30270;40.238;18.256;2022-10-16T14:29:29;5.43;;;3.88;;
44558;SDS011;30270;40.238;18.256;2022-10-16T14:32:02;8.10;;;4.45;;
44558;SDS011;30270;40.238;18.256;2022-10-16T14:34:36;7.40;;;3.75;;
44558;SDS011;30270;40.238;18.256;2022-10-16T14:37:40;6.03;;;3.80;;
44558;SDS011;30270;40.238;18.256;2022-10-16T14:40:02;5.55;;;3.80;;
44558;SDS011;30270;40.238;18.256;2022-10-16T14:42:31;7.90;;;4.32;;
44558;SDS011;30270;40.238;18.256;2022-10-16T14:44:59;4.85;;;3.90;;
44558;SDS011;30270;40.238;18.256;2022-10-16T14:47:27;14.27;;;3.72;;
44558;SDS011;30270;40.238;18.256;2022-10-16T14:49:56;5.15;;;4.10;;
44558;SDS011;30270;40.238;18.256;2022-10-16T14:52:26;6.97;;;4.93;;
44558;SDS011;30270;40.238;18.256;2022-10-16T14:54:53;9.65;;;5.25;;
44558;SDS011;30270;40.238;18.256;2022-10-16T14:57:24;5.57;;;3.97;;
44558;SDS011;30270;40.238;18.256;2022-10-16T14:59:55;6.07;;;3.95;;
44558;SDS011;30270;40.238;18.256;2022-10-16T15:02:31;6.35;;;4.43;;
44558;SDS011;30270;40.238;18.256;2022-10-16T15:05:37;5.68;;;4.10;;
44558;SDS011;30270;40.238;18.256;2022-10-16T15:07:59;5.88;;;3.80;;
44558;SDS011;30270;40.238;18.256;2022-10-16T15:10:27;7.82;;;4.63;;
44558;SDS011;30270;40.238;18.256;2022-10-16T15:12:57;4.43;;;3.55;;
44558;SDS011;30270;40.238;18.256;2022-10-16T15:15:35;7.60;;;4.55;;
44558;SDS011;30270;40.238;18.256;2022-10-16T15:18:05;6.47;;;4.22;;
44558;SDS011;30270;40.238;18.256;2022-10-16T15:20:34;5.45;;;3.17;;
44558;SDS011;30270;40.238;18.256;2022-10-16T15:23:12;5.55;;;3.63;;
44558;SDS011;30270;40.238;18.256;2022-10-16T15:25:46;6.15;;;3.88;;
44558;SDS011;30270;40.238;18.256;2022-10-16T15:28:16;8.18;;;4.13;;
44558;SDS011;30270;40.238;18.256;2022-10-16T15:30:45;6.35;;;3.83;;
44558;SDS011;30270;40.238;18.256;2022-10-16T15:33:17;6.47;;;4.22;;
44558;SDS011;30270;40.238;18.256;2022-10-16T15:35:47;6.13;;;4.25;;
44558;SDS011;30270;40.238;18.256;2022-10-16T15:38:15;4.95;;;3.75;;
44558;SDS011;30270;40.238;18.256;2022-10-16T15:40:45;5.75;;;4.18;;
44558;SDS011;30270;40.238;18.256;2022-10-16T15:43:14;5.90;;;4.25;;
44558;SDS011;30270;40.238;18.256;2022-10-16T15:45:42;4.60;;;3.45;;
44558;SDS011;30270;40.238;18.256;2022-10-16T15:48:10;5.45;;;4.13;;
44558;SDS011;30270;40.238;18.256;2022-10-16T15:50:40;8.48;;;4.22;;
44558;SDS011;30270;40.238;18.256;2022-10-16T15:53:10;7.65;;;4.13;;
44558;SDS011;30270;40.238;18.256;2022-10-16T15:55:38;6.20;;;3.58;;
44558;SDS011;30270;40.238;18.256;2022-10-16T15:58:06;5.18;;;4.20;;
44558;SDS011;30270;40.238;18.256;2022-10-16T16:00:34;5.57;;;4.35;;
44558;SDS011;30270;40.238;18.256;2022-10-16T16:03:02;8.13;;;4.40;;
44558;SDS011;30270;40.238;18.256;2022-10-16T16:05:30;5.68;;;4.60;;
44558;SDS011;30270;40.238;18.256;2022-10-16T16:08:00;9.30;;;5.47;;
44558;SDS011;30270;40.238;18.256;2022-10-16T16:10:27;6.07;;;4.45;;
44558;SDS011;30270;40.238;18.256;2022-10-16T16:12:57;6.18;;;4.82;;
44558;SDS011;30270;40.238;18.256;2022-10-16T16:15:26;7.82;;;5.32;;
44558;SDS011;30270;40.238;18.256;2022-10-16T16:17:54;8.98;;;4.85;;
44558;SDS011;30270;40.238;18.256;2022-10-16T16:20:22;10.23;;;5.18;;
44558;SDS011;30270;40.238;18.256;2022-10-16T16:22:50;8.32;;;5.53;;
44558;SDS011;30270;40.238;18.256;2022-10-16T16:25:18;9.50;;;5.53;;
44558;SDS011;30270;40.238;18.256;2022-10-16T16:27:52;8.50;;;5.40;;
44558;SDS011;30270;40.238;18.256;2022-10-16T16:30:20;12.52;;;6.72;;
44558;SDS011;30270;40.238;18.256;2022-10-16T16:32:49;11.63;;;7.30;;
44558;SDS011;30270;40.238;18.256;2022-10-16T16:35:17;7.45;;;6.47;;
44558;SDS011;30270;40.238;18.256;2022-10-16T16:37:46;10.68;;;6.53;;
44558;SDS011;30270;40.238;18.256;2022-10-16T16:40:15;8.82;;;6.03;;
44558;SDS011;30270;40.238;18.256;2022-10-16T16:42:43;10.82;;;6.88;;
44558;SDS011;30270;40.238;18.256;2022-10-16T16:45:11;9.52;;;6.85;;
44558;SDS011;30270;40.238;18.256;2022-10-16T16:47:38;8.13;;;5.75;;
44558;SDS011;30270;40.238;18.256;2022-10-16T16:50:06;9.88;;;6.65;;
44558;SDS011;30270;40.238;18.256;2022-10-16T16:52:34;9.77;;;6.50;;
44558;SDS011;30270;40.238;18.256;2022-10-16T16:55:05;10.65;;;7.40;;
44558;SDS011;30270;40.238;18.256;2022-10-16T16:57:33;10.65;;;7.00;;